Terminal Aerodrome Forecast
Issued by NWS

Home | Current Version | Previous Version | Text Only | Print | Product List | Glossary On
Versions: 1 2 3 4 5 6 7 8 9 10 11 12 13 14 15 16 17 18
000
FTUS43 KGRB 070531
TAFATW
TAF
KATW 070531Z 0706/0806 36011G16KT 3SM HZ OVC015
     FM070800 34011KT 3SM FU SCT012 OVC035
     FM071400 36011KT P6SM SCT030
     FM072200 01007KT P6SM SKC
     FM080200 VRB03KT P6SM SKC=

USA.gov is the U.S. government's official web portal to all federal, state and local government web resources and services.